sensor_id;sensor_type;location;lat;lon;timestamp;P1;durP1;ratioP1;P2;durP2;ratioP2
65289;SDS011;51893;59.754;10.110;2023-05-19T00:01:00;2.40;;;1.70;;
65289;SDS011;51893;59.754;10.110;2023-05-19T00:03:28;4.60;;;1.40;;
65289;SDS011;51893;59.754;10.110;2023-05-19T00:06:01;2.90;;;1.20;;
65289;SDS011;51893;59.754;10.110;2023-05-19T00:08:30;1.60;;;1.30;;
65289;SDS011;51893;59.754;10.110;2023-05-19T00:11:00;2.70;;;1.30;;
65289;SDS011;51893;59.754;10.110;2023-05-19T00:13:28;2.30;;;1.20;;
65289;SDS011;51893;59.754;10.110;2023-05-19T00:15:57;2.00;;;1.40;;
65289;SDS011;51893;59.754;10.110;2023-05-19T00:18:25;4.80;;;1.10;;
65289;SDS011;51893;59.754;10.110;2023-05-19T00:20:56;5.10;;;1.30;;
65289;SDS011;51893;59.754;10.110;2023-05-19T00:23:24;2.70;;;1.30;;
65289;SDS011;51893;59.754;10.110;2023-05-19T00:25:52;1.40;;;1.10;;
65289;SDS011;51893;59.754;10.110;2023-05-19T00:28:20;6.60;;;1.40;;
65289;SDS011;51893;59.754;10.110;2023-05-19T00:30:50;1.60;;;1.10;;
65289;SDS011;51893;59.754;10.110;2023-05-19T00:33:18;2.80;;;1.40;;
65289;SDS011;51893;59.754;10.110;2023-05-19T00:35:46;3.50;;;1.40;;
65289;SDS011;51893;59.754;10.110;2023-05-19T00:38:14;1.80;;;1.30;;
65289;SDS011;51893;59.754;10.110;2023-05-19T00:40:42;3.30;;;1.60;;
65289;SDS011;51893;59.754;10.110;2023-05-19T00:43:11;1.40;;;1.30;;
65289;SDS011;51893;59.754;10.110;2023-05-19T00:45:40;2.50;;;1.50;;
65289;SDS011;51893;59.754;10.110;2023-05-19T00:48:08;2.90;;;1.50;;
65289;SDS011;51893;59.754;10.110;2023-05-19T00:50:36;2.50;;;1.60;;
65289;SDS011;51893;59.754;10.110;2023-05-19T00:53:04;6.20;;;1.40;;
65289;SDS011;51893;59.754;10.110;2023-05-19T00:55:35;1.70;;;1.30;;
65289;SDS011;51893;59.754;10.110;2023-05-19T00:58:09;7.30;;;1.70;;
65289;SDS011;51893;59.754;10.110;2023-05-19T01:00:38;3.50;;;1.20;;
65289;SDS011;51893;59.754;10.110;2023-05-19T01:03:06;3.20;;;1.00;;
65289;SDS011;51893;59.754;10.110;2023-05-19T01:05:42;2.50;;;1.50;;
65289;SDS011;51893;59.754;10.110;2023-05-19T01:08:14;1.70;;;1.40;;
65289;SDS011;51893;59.754;10.110;2023-05-19T01:10:43;2.70;;;1.40;;
65289;SDS011;51893;59.754;10.110;2023-05-19T01:13:11;2.60;;;1.30;;
65289;SDS011;51893;59.754;10.110;2023-05-19T01:18:49;2.00;;;1.80;;
65289;SDS011;51893;59.754;10.110;2023-05-19T01:22:01;5.20;;;1.80;;
65289;SDS011;51893;59.754;10.110;2023-05-19T01:25:07;2.60;;;1.60;;
65289;SDS011;51893;59.754;10.110;2023-05-19T01:33:09;2.90;;;1.30;;
65289;SDS011;51893;59.754;10.110;2023-05-19T01:35:43;8.00;;;1.30;;
65289;SDS011;51893;59.754;10.110;2023-05-19T01:38:15;5.30;;;1.30;;
65289;SDS011;51893;59.754;10.110;2023-05-19T01:40:46;1.70;;;1.40;;
65289;SDS011;51893;59.754;10.110;2023-05-19T01:43:19;2.30;;;1.40;;
65289;SDS011;51893;59.754;10.110;2023-05-19T01:45:49;3.10;;;1.80;;
65289;SDS011;51893;59.754;10.110;2023-05-19T01:48:18;3.90;;;1.90;;
65289;SDS011;51893;59.754;10.110;2023-05-19T01:50:46;4.40;;;1.40;;
65289;SDS011;51893;59.754;10.110;2023-05-19T01:53:14;5.60;;;1.70;;
65289;SDS011;51893;59.754;10.110;2023-05-19T01:55:46;4.60;;;1.80;;
65289;SDS011;51893;59.754;10.110;2023-05-19T01:58:21;2.80;;;1.50;;
65289;SDS011;51893;59.754;10.110;2023-05-19T02:06:52;1.30;;;1.20;;
65289;SDS011;51893;59.754;10.110;2023-05-19T02:12:33;3.70;;;1.70;;
65289;SDS011;51893;59.754;10.110;2023-05-19T02:15:14;1.90;;;1.40;;
65289;SDS011;51893;59.754;10.110;2023-05-19T02:17:45;1.60;;;1.40;;
65289;SDS011;51893;59.754;10.110;2023-05-19T02:20:19;2.10;;;1.40;;
65289;SDS011;51893;59.754;10.110;2023-05-19T02:22:48;1.90;;;1.50;;
65289;SDS011;51893;59.754;10.110;2023-05-19T02:25:16;1.50;;;1.40;;
65289;SDS011;51893;59.754;10.110;2023-05-19T02:27:44;3.60;;;1.90;;
65289;SDS011;51893;59.754;10.110;2023-05-19T02:30:12;5.50;;;1.60;;
65289;SDS011;51893;59.754;10.110;2023-05-19T02:32:40;3.80;;;1.40;;
65289;SDS011;51893;59.754;10.110;2023-05-19T02:35:08;1.50;;;1.10;;
65289;SDS011;51893;59.754;10.110;2023-05-19T02:37:36;3.90;;;1.20;;
65289;SDS011;51893;59.754;10.110;2023-05-19T02:40:06;2.50;;;1.40;;
65289;SDS011;51893;59.754;10.110;2023-05-19T02:42:34;2.30;;;1.50;;
65289;SDS011;51893;59.754;10.110;2023-05-19T02:45:02;3.90;;;1.60;;
65289;SDS011;51893;59.754;10.110;2023-05-19T02:47:30;2.90;;;1.60;;
65289;SDS011;51893;59.754;10.110;2023-05-19T02:50:04;3.80;;;1.70;;
65289;SDS011;51893;59.754;10.110;2023-05-19T02:52:32;2.60;;;1.60;;
65289;SDS011;51893;59.754;10.110;2023-05-19T02:55:00;2.80;;;1.80;;
65289;SDS011;51893;59.754;10.110;2023-05-19T02:57:29;3.70;;;1.60;;
65289;SDS011;51893;59.754;10.110;2023-05-19T02:59:58;3.40;;;1.70;;
65289;SDS011;51893;59.754;10.110;2023-05-19T03:02:26;3.40;;;1.90;;
65289;SDS011;51893;59.754;10.110;2023-05-19T03:04:54;4.30;;;1.70;;
65289;SDS011;51893;59.754;10.110;2023-05-19T03:07:22;2.60;;;1.60;;
65289;SDS011;51893;59.754;10.110;2023-05-19T03:09:52;5.40;;;1.70;;
65289;SDS011;51893;59.754;10.110;2023-05-19T03:12:20;1.70;;;1.30;;
65289;SDS011;51893;59.754;10.110;2023-05-19T03:14:48;2.20;;;1.60;;
65289;SDS011;51893;59.754;10.110;2023-05-19T03:17:16;5.60;;;1.70;;
65289;SDS011;51893;59.754;10.110;2023-05-19T03:19:44;2.10;;;1.60;;
65289;SDS011;51893;59.754;10.110;2023-05-19T03:22:12;4.30;;;1.90;;
65289;SDS011;51893;59.754;10.110;2023-05-19T03:24:40;2.70;;;1.80;;
65289;SDS011;51893;59.754;10.110;2023-05-19T03:27:10;6.20;;;1.80;;
65289;SDS011;51893;59.754;10.110;2023-05-19T03:29:38;4.10;;;2.10;;
65289;SDS011;51893;59.754;10.110;2023-05-19T03:32:07;2.70;;;1.80;;
65289;SDS011;51893;59.754;10.110;2023-05-19T03:34:35;4.00;;;1.90;;
65289;SDS011;51893;59.754;10.110;2023-05-19T03:37:03;2.40;;;1.80;;
65289;SDS011;51893;59.754;10.110;2023-05-19T03:39:31;6.00;;;1.50;;
65289;SDS011;51893;59.754;10.110;2023-05-19T03:41:59;4.00;;;1.70;;
65289;SDS011;51893;59.754;10.110;2023-05-19T03:44:27;3.60;;;1.70;;
65289;SDS011;51893;59.754;10.110;2023-05-19T03:46:55;6.20;;;2.00;;
65289;SDS011;51893;59.754;10.110;2023-05-19T03:49:23;3.40;;;1.60;;
65289;SDS011;51893;59.754;10.110;2023-05-19T03:51:51;4.00;;;1.40;;
65289;SDS011;51893;59.754;10.110;2023-05-19T03:54:19;7.20;;;1.60;;
65289;SDS011;51893;59.754;10.110;2023-05-19T03:56:49;5.10;;;1.70;;
65289;SDS011;51893;59.754;10.110;2023-05-19T03:59:17;6.10;;;2.00;;
65289;SDS011;51893;59.754;10.110;2023-05-19T04:01:45;4.00;;;2.00;;
65289;SDS011;51893;59.754;10.110;2023-05-19T04:04:14;5.00;;;1.80;;
65289;SDS011;51893;59.754;10.110;2023-05-19T04:06:42;6.60;;;3.20;;
65289;SDS011;51893;59.754;10.110;2023-05-19T04:09:11;5.80;;;3.10;;
65289;SDS011;51893;59.754;10.110;2023-05-19T04:11:41;5.60;;;2.50;;
65289;SDS011;51893;59.754;10.110;2023-05-19T04:14:09;8.10;;;2.20;;
65289;SDS011;51893;59.754;10.110;2023-05-19T04:16:37;4.20;;;2.30;;
65289;SDS011;51893;59.754;10.110;2023-05-19T04:19:05;3.90;;;2.40;;
65289;SDS011;51893;59.754;10.110;2023-05-19T04:21:33;3.70;;;2.50;;
65289;SDS011;51893;59.754;10.110;2023-05-19T04:24:01;5.40;;;2.30;;
65289;SDS011;51893;59.754;10.110;2023-05-19T04:26:33;8.20;;;2.50;;
65289;SDS011;51893;59.754;10.110;2023-05-19T04:29:03;7.90;;;2.80;;
65289;SDS011;51893;59.754;10.110;2023-05-19T04:31:31;7.60;;;2.40;;
65289;SDS011;51893;59.754;10.110;2023-05-19T04:34:01;8.90;;;2.80;;
65289;SDS011;51893;59.754;10.110;2023-05-19T04:36:29;4.50;;;3.10;;
65289;SDS011;51893;59.754;10.110;2023-05-19T04:38:58;4.10;;;2.90;;
65289;SDS011;51893;59.754;10.110;2023-05-19T04:41:29;7.50;;;2.30;;
65289;SDS011;51893;59.754;10.110;2023-05-19T04:43:57;4.60;;;2.80;;
65289;SDS011;51893;59.754;10.110;2023-05-19T04:46:26;3.40;;;2.50;;
65289;SDS011;51893;59.754;10.110;2023-05-19T04:48:56;3.10;;;1.70;;
65289;SDS011;51893;59.754;10.110;2023-05-19T04:51:28;5.10;;;2.20;;
65289;SDS011;51893;59.754;10.110;2023-05-19T04:53:58;6.10;;;2.30;;
65289;SDS011;51893;59.754;10.110;2023-05-19T04:56:26;7.80;;;2.10;;
65289;SDS011;51893;59.754;10.110;2023-05-19T04:58:55;7.90;;;2.70;;
65289;SDS011;51893;59.754;10.110;2023-05-19T05:01:23;4.10;;;2.20;;
65289;SDS011;51893;59.754;10.110;2023-05-19T05:03:54;7.30;;;2.50;;
65289;SDS011;51893;59.754;10.110;2023-05-19T05:06:22;7.20;;;3.00;;
65289;SDS011;51893;59.754;10.110;2023-05-19T05:08:50;4.90;;;2.20;;
65289;SDS011;51893;59.754;10.110;2023-05-19T05:11:19;7.90;;;2.40;;
65289;SDS011;51893;59.754;10.110;2023-05-19T05:13:47;9.40;;;3.00;;
65289;SDS011;51893;59.754;10.110;2023-05-19T05:16:15;5.00;;;2.50;;
65289;SDS011;51893;59.754;10.110;2023-05-19T05:18:44;7.00;;;3.00;;
65289;SDS011;51893;59.754;10.110;2023-05-19T05:21:14;14.40;;;3.10;;
65289;SDS011;51893;59.754;10.110;2023-05-19T05:23:42;7.10;;;2.60;;
65289;SDS011;51893;59.754;10.110;2023-05-19T05:26:20;6.00;;;2.30;;
65289;SDS011;51893;59.754;10.110;2023-05-19T05:28:51;6.50;;;2.80;;
65289;SDS011;51893;59.754;10.110;2023-05-19T05:31:19;6.60;;;2.80;;
65289;SDS011;51893;59.754;10.110;2023-05-19T05:33:47;4.80;;;2.30;;
65289;SDS011;51893;59.754;10.110;2023-05-19T05:36:15;11.50;;;3.30;;
65289;SDS011;51893;59.754;10.110;2023-05-19T05:38:43;8.20;;;3.00;;
65289;SDS011;51893;59.754;10.110;2023-05-19T05:41:11;8.70;;;2.70;;
65289;SDS011;51893;59.754;10.110;2023-05-19T05:43:39;8.60;;;3.10;;
65289;SDS011;51893;59.754;10.110;2023-05-19T05:46:07;7.30;;;3.10;;
65289;SDS011;51893;59.754;10.110;2023-05-19T05:48:35;6.00;;;3.10;;
65289;SDS011;51893;59.754;10.110;2023-05-19T05:51:04;8.80;;;3.20;;
65289;SDS011;51893;59.754;10.110;2023-05-19T05:53:36;4.40;;;2.10;;
65289;SDS011;51893;59.754;10.110;2023-05-19T05:56:10;5.00;;;2.30;;
65289;SDS011;51893;59.754;10.110;2023-05-19T05:58:38;7.70;;;2.30;;
65289;SDS011;51893;59.754;10.110;2023-05-19T06:01:07;5.90;;;3.10;;
65289;SDS011;51893;59.754;10.110;2023-05-19T06:03:40;6.50;;;3.50;;
65289;SDS011;51893;59.754;10.110;2023-05-19T06:06:11;8.00;;;3.30;;
65289;SDS011;51893;59.754;10.110;2023-05-19T06:08:39;6.60;;;2.80;;
65289;SDS011;51893;59.754;10.110;2023-05-19T06:11:07;5.60;;;2.30;;
65289;SDS011;51893;59.754;10.110;2023-05-19T06:13:36;7.50;;;3.40;;
65289;SDS011;51893;59.754;10.110;2023-05-19T06:16:05;6.80;;;3.10;;
65289;SDS011;51893;59.754;10.110;2023-05-19T06:18:33;8.60;;;3.30;;
65289;SDS011;51893;59.754;10.110;2023-05-19T06:21:02;12.20;;;4.00;;
65289;SDS011;51893;59.754;10.110;2023-05-19T06:23:30;7.40;;;3.30;;
65289;SDS011;51893;59.754;10.110;2023-05-19T06:25:58;12.00;;;3.40;;
65289;SDS011;51893;59.754;10.110;2023-05-19T06:28:26;7.50;;;3.20;;
65289;SDS011;51893;59.754;10.110;2023-05-19T06:30:54;6.80;;;3.20;;
65289;SDS011;51893;59.754;10.110;2023-05-19T06:33:23;11.60;;;3.20;;
65289;SDS011;51893;59.754;10.110;2023-05-19T06:35:55;5.30;;;2.40;;
65289;SDS011;51893;59.754;10.110;2023-05-19T06:38:23;8.40;;;1.90;;
65289;SDS011;51893;59.754;10.110;2023-05-19T06:40:51;5.60;;;2.30;;
65289;SDS011;51893;59.754;10.110;2023-05-19T06:43:19;11.40;;;3.60;;
65289;SDS011;51893;59.754;10.110;2023-05-19T06:45:48;9.00;;;3.10;;
65289;SDS011;51893;59.754;10.110;2023-05-19T06:48:16;7.80;;;2.80;;
65289;SDS011;51893;59.754;10.110;2023-05-19T06:50:44;6.00;;;3.30;;
65289;SDS011;51893;59.754;10.110;2023-05-19T06:53:12;5.50;;;2.50;;
65289;SDS011;51893;59.754;10.110;2023-05-19T06:55:40;7.50;;;2.80;;
65289;SDS011;51893;59.754;10.110;2023-05-19T06:58:25;7.40;;;2.70;;
65289;SDS011;51893;59.754;10.110;2023-05-19T07:00:53;5.10;;;2.30;;
65289;SDS011;51893;59.754;10.110;2023-05-19T07:03:21;5.20;;;2.40;;
65289;SDS011;51893;59.754;10.110;2023-05-19T07:05:49;7.40;;;3.20;;
65289;SDS011;51893;59.754;10.110;2023-05-19T07:08:18;3.10;;;2.10;;
65289;SDS011;51893;59.754;10.110;2023-05-19T07:10:46;10.10;;;2.70;;
65289;SDS011;51893;59.754;10.110;2023-05-19T07:13:13;5.00;;;2.50;;
65289;SDS011;51893;59.754;10.110;2023-05-19T07:15:41;6.90;;;2.70;;
65289;SDS011;51893;59.754;10.110;2023-05-19T07:18:10;10.40;;;2.70;;
65289;SDS011;51893;59.754;10.110;2023-05-19T07:20:38;7.10;;;3.20;;
65289;SDS011;51893;59.754;10.110;2023-05-19T07:23:06;4.60;;;2.50;;
65289;SDS011;51893;59.754;10.110;2023-05-19T07:25:34;7.50;;;2.90;;
65289;SDS011;51893;59.754;10.110;2023-05-19T07:28:02;12.70;;;2.80;;
65289;SDS011;51893;59.754;10.110;2023-05-19T07:30:30;11.50;;;3.40;;
65289;SDS011;51893;59.754;10.110;2023-05-19T07:32:59;9.70;;;3.30;;
65289;SDS011;51893;59.754;10.110;2023-05-19T07:35:27;8.50;;;3.00;;
65289;SDS011;51893;59.754;10.110;2023-05-19T07:37:55;5.80;;;3.10;;
65289;SDS011;51893;59.754;10.110;2023-05-19T07:40:23;10.60;;;3.20;;
65289;SDS011;51893;59.754;10.110;2023-05-19T07:42:51;10.70;;;3.30;;
65289;SDS011;51893;59.754;10.110;2023-05-19T07:45:20;12.80;;;3.10;;
65289;SDS011;51893;59.754;10.110;2023-05-19T07:47:48;13.20;;;3.30;;
65289;SDS011;51893;59.754;10.110;2023-05-19T07:50:18;6.40;;;2.90;;
65289;SDS011;51893;59.754;10.110;2023-05-19T07:52:46;7.80;;;2.90;;
65289;SDS011;51893;59.754;10.110;2023-05-19T07:55:14;9.50;;;2.50;;
65289;SDS011;51893;59.754;10.110;2023-05-19T07:57:43;6.00;;;2.40;;
65289;SDS011;51893;59.754;10.110;2023-05-19T08:00:11;9.00;;;3.10;;
65289;SDS011;51893;59.754;10.110;2023-05-19T08:02:40;9.60;;;2.60;;
65289;SDS011;51893;59.754;10.110;2023-05-19T08:05:08;5.10;;;2.10;;
65289;SDS011;51893;59.754;10.110;2023-05-19T08:07:37;11.50;;;3.10;;
65289;SDS011;51893;59.754;10.110;2023-05-19T08:10:05;12.00;;;3.80;;
65289;SDS011;51893;59.754;10.110;2023-05-19T08:12:34;8.60;;;2.30;;
65289;SDS011;51893;59.754;10.110;2023-05-19T08:15:03;9.90;;;3.20;;
65289;SDS011;51893;59.754;10.110;2023-05-19T08:17:31;12.20;;;2.70;;
65289;SDS011;51893;59.754;10.110;2023-05-19T08:19:59;11.40;;;3.10;;
65289;SDS011;51893;59.754;10.110;2023-05-19T08:22:27;7.70;;;2.60;;
65289;SDS011;51893;59.754;10.110;2023-05-19T08:24:55;7.50;;;2.60;;
65289;SDS011;51893;59.754;10.110;2023-05-19T08:27:25;8.50;;;3.10;;
65289;SDS011;51893;59.754;10.110;2023-05-19T08:29:53;8.40;;;2.90;;
65289;SDS011;51893;59.754;10.110;2023-05-19T08:32:22;6.40;;;2.50;;
65289;SDS011;51893;59.754;10.110;2023-05-19T08:34:51;5.30;;;2.70;;
65289;SDS011;51893;59.754;10.110;2023-05-19T08:37:18;8.90;;;3.40;;
65289;SDS011;51893;59.754;10.110;2023-05-19T08:39:46;9.60;;;3.50;;
65289;SDS011;51893;59.754;10.110;2023-05-19T08:42:15;6.50;;;2.40;;
65289;SDS011;51893;59.754;10.110;2023-05-19T08:44:43;11.40;;;4.10;;
65289;SDS011;51893;59.754;10.110;2023-05-19T08:47:12;11.50;;;3.40;;
65289;SDS011;51893;59.754;10.110;2023-05-19T08:49:44;7.10;;;3.20;;
65289;SDS011;51893;59.754;10.110;2023-05-19T08:52:40;6.60;;;2.90;;
65289;SDS011;51893;59.754;10.110;2023-05-19T08:55:24;10.60;;;3.50;;
65289;SDS011;51893;59.754;10.110;2023-05-19T08:58:03;9.00;;;3.60;;
65289;SDS011;51893;59.754;10.110;2023-05-19T09:00:31;13.60;;;3.40;;
65289;SDS011;51893;59.754;10.110;2023-05-19T09:03:01;6.10;;;3.00;;
65289;SDS011;51893;59.754;10.110;2023-05-19T09:05:49;6.00;;;2.80;;
65289;SDS011;51893;59.754;10.110;2023-05-19T09:08:18;9.30;;;2.50;;
65289;SDS011;51893;59.754;10.110;2023-05-19T09:10:46;6.30;;;2.60;;
65289;SDS011;51893;59.754;10.110;2023-05-19T09:13:14;10.80;;;3.80;;
65289;SDS011;51893;59.754;10.110;2023-05-19T09:15:43;7.00;;;3.00;;
65289;SDS011;51893;59.754;10.110;2023-05-19T09:18:13;12.60;;;3.60;;
65289;SDS011;51893;59.754;10.110;2023-05-19T09:20:44;6.00;;;3.00;;
65289;SDS011;51893;59.754;10.110;2023-05-19T09:23:14;6.80;;;2.70;;
65289;SDS011;51893;59.754;10.110;2023-05-19T09:25:51;8.30;;;3.70;;
65289;SDS011;51893;59.754;10.110;2023-05-19T09:28:26;9.80;;;3.40;;
65289;SDS011;51893;59.754;10.110;2023-05-19T09:31:10;6.20;;;3.10;;
65289;SDS011;51893;59.754;10.110;2023-05-19T09:33:39;15.40;;;3.70;;
65289;SDS011;51893;59.754;10.110;2023-05-19T09:36:13;9.40;;;3.50;;
65289;SDS011;51893;59.754;10.110;2023-05-19T09:38:41;7.20;;;2.90;;
65289;SDS011;51893;59.754;10.110;2023-05-19T09:41:09;9.20;;;3.60;;
65289;SDS011;51893;59.754;10.110;2023-05-19T09:43:37;8.70;;;3.00;;
65289;SDS011;51893;59.754;10.110;2023-05-19T09:46:06;10.10;;;3.70;;
65289;SDS011;51893;59.754;10.110;2023-05-19T09:48:38;7.60;;;2.90;;
65289;SDS011;51893;59.754;10.110;2023-05-19T09:51:07;5.40;;;2.60;;
65289;SDS011;51893;59.754;10.110;2023-05-19T09:53:37;5.80;;;3.30;;
65289;SDS011;51893;59.754;10.110;2023-05-19T09:56:07;6.20;;;2.80;;
65289;SDS011;51893;59.754;10.110;2023-05-19T09:58:40;7.70;;;4.00;;
65289;SDS011;51893;59.754;10.110;2023-05-19T10:01:09;10.90;;;3.40;;
65289;SDS011;51893;59.754;10.110;2023-05-19T10:03:38;5.70;;;3.50;;
65289;SDS011;51893;59.754;10.110;2023-05-19T10:06:08;7.90;;;3.30;;
65289;SDS011;51893;59.754;10.110;2023-05-19T10:08:36;9.10;;;3.20;;
65289;SDS011;51893;59.754;10.110;2023-05-19T10:11:07;8.30;;;3.80;;
65289;SDS011;51893;59.754;10.110;2023-05-19T10:13:37;10.70;;;4.10;;
65289;SDS011;51893;59.754;10.110;2023-05-19T10:16:07;7.80;;;3.30;;
65289;SDS011;51893;59.754;10.110;2023-05-19T10:18:36;11.90;;;3.10;;
65289;SDS011;51893;59.754;10.110;2023-05-19T10:21:07;10.20;;;3.40;;
65289;SDS011;51893;59.754;10.110;2023-05-19T10:23:36;7.40;;;3.80;;
65289;SDS011;51893;59.754;10.110;2023-05-19T10:26:05;10.60;;;3.50;;
65289;SDS011;51893;59.754;10.110;2023-05-19T10:28:37;13.30;;;4.00;;
65289;SDS011;51893;59.754;10.110;2023-05-19T10:31:10;6.00;;;2.50;;
65289;SDS011;51893;59.754;10.110;2023-05-19T10:34:19;10.50;;;3.20;;
65289;SDS011;51893;59.754;10.110;2023-05-19T10:37:11;11.40;;;3.20;;
65289;SDS011;51893;59.754;10.110;2023-05-19T10:39:53;10.00;;;3.10;;
65289;SDS011;51893;59.754;10.110;2023-05-19T10:42:37;10.60;;;3.80;;
65289;SDS011;51893;59.754;10.110;2023-05-19T10:45:21;12.70;;;3.10;;
65289;SDS011;51893;59.754;10.110;2023-05-19T10:47:53;8.20;;;3.10;;
65289;SDS011;51893;59.754;10.110;2023-05-19T10:50:22;7.80;;;2.80;;
65289;SDS011;51893;59.754;10.110;2023-05-19T10:52:54;6.60;;;2.50;;
65289;SDS011;51893;59.754;10.110;2023-05-19T11:01:15;10.10;;;3.40;;
65289;SDS011;51893;59.754;10.110;2023-05-19T11:03:52;5.20;;;2.90;;
65289;SDS011;51893;59.754;10.110;2023-05-19T11:06:28;7.00;;;3.10;;
65289;SDS011;51893;59.754;10.110;2023-05-19T11:09:00;8.00;;;3.20;;
65289;SDS011;51893;59.754;10.110;2023-05-19T11:11:50;10.30;;;3.90;;
65289;SDS011;51893;59.754;10.110;2023-05-19T11:14:22;9.20;;;3.30;;
65289;SDS011;51893;59.754;10.110;2023-05-19T11:16:57;9.00;;;3.30;;
65289;SDS011;51893;59.754;10.110;2023-05-19T11:19:30;16.40;;;3.80;;
65289;SDS011;51893;59.754;10.110;2023-05-19T11:22:12;16.40;;;3.90;;
65289;SDS011;51893;59.754;10.110;2023-05-19T11:24:44;11.70;;;3.40;;
65289;SDS011;51893;59.754;10.110;2023-05-19T11:29:48;10.10;;;3.60;;
65289;SDS011;51893;59.754;10.110;2023-05-19T11:32:25;5.20;;;2.30;;
65289;SDS011;51893;59.754;10.110;2023-05-19T11:34:55;10.90;;;3.00;;
65289;SDS011;51893;59.754;10.110;2023-05-19T11:37:24;11.80;;;3.70;;
65289;SDS011;51893;59.754;10.110;2023-05-19T11:39:53;9.00;;;2.90;;
65289;SDS011;51893;59.754;10.110;2023-05-19T11:42:21;6.30;;;2.20;;
65289;SDS011;51893;59.754;10.110;2023-05-19T11:44:54;12.30;;;3.80;;
65289;SDS011;51893;59.754;10.110;2023-05-19T11:47:23;8.20;;;3.00;;
65289;SDS011;51893;59.754;10.110;2023-05-19T11:49:51;9.10;;;2.50;;
65289;SDS011;51893;59.754;10.110;2023-05-19T11:52:24;10.50;;;3.60;;
65289;SDS011;51893;59.754;10.110;2023-05-19T11:54:54;8.60;;;3.60;;
65289;SDS011;51893;59.754;10.110;2023-05-19T11:57:23;8.60;;;3.00;;
65289;SDS011;51893;59.754;10.110;2023-05-19T11:59:51;9.90;;;3.30;;
65289;SDS011;51893;59.754;10.110;2023-05-19T12:02:24;12.00;;;3.70;;
65289;SDS011;51893;59.754;10.110;2023-05-19T12:04:54;7.50;;;3.50;;
65289;SDS011;51893;59.754;10.110;2023-05-19T12:07:23;8.80;;;3.00;;
65289;SDS011;51893;59.754;10.110;2023-05-19T12:09:53;4.80;;;2.20;;
65289;SDS011;51893;59.754;10.110;2023-05-19T12:12:22;10.50;;;3.40;;
65289;SDS011;51893;59.754;10.110;2023-05-19T12:14:51;8.70;;;3.30;;
65289;SDS011;51893;59.754;10.110;2023-05-19T12:17:20;10.20;;;3.40;;
65289;SDS011;51893;59.754;10.110;2023-05-19T12:19:51;5.80;;;2.70;;
65289;SDS011;51893;59.754;10.110;2023-05-19T12:22:19;11.10;;;3.00;;
65289;SDS011;51893;59.754;10.110;2023-05-19T12:24:48;8.10;;;3.50;;
65289;SDS011;51893;59.754;10.110;2023-05-19T12:27:24;14.00;;;3.90;;
65289;SDS011;51893;59.754;10.110;2023-05-19T12:29:54;12.70;;;3.90;;
65289;SDS011;51893;59.754;10.110;2023-05-19T12:32:26;6.00;;;2.90;;
65289;SDS011;51893;59.754;10.110;2023-05-19T12:34:57;8.90;;;3.30;;
65289;SDS011;51893;59.754;10.110;2023-05-19T12:37:26;8.00;;;3.60;;
65289;SDS011;51893;59.754;10.110;2023-05-19T12:39:55;9.10;;;3.50;;
65289;SDS011;51893;59.754;10.110;2023-05-19T12:42:26;6.10;;;3.00;;
65289;SDS011;51893;59.754;10.110;2023-05-19T12:44:58;10.10;;;3.20;;
65289;SDS011;51893;59.754;10.110;2023-05-19T12:47:34;10.20;;;3.60;;
65289;SDS011;51893;59.754;10.110;2023-05-19T12:50:08;9.80;;;3.40;;
65289;SDS011;51893;59.754;10.110;2023-05-19T12:52:48;7.50;;;2.70;;
65289;SDS011;51893;59.754;10.110;2023-05-19T12:55:19;9.60;;;3.10;;
65289;SDS011;51893;59.754;10.110;2023-05-19T12:57:50;7.30;;;2.60;;
65289;SDS011;51893;59.754;10.110;2023-05-19T13:00:25;5.90;;;2.50;;
65289;SDS011;51893;59.754;10.110;2023-05-19T13:03:00;5.20;;;2.20;;
65289;SDS011;51893;59.754;10.110;2023-05-19T13:05:36;6.60;;;2.50;;
65289;SDS011;51893;59.754;10.110;2023-05-19T13:08:08;5.20;;;2.10;;
65289;SDS011;51893;59.754;10.110;2023-05-19T13:10:38;8.80;;;2.60;;
65289;SDS011;51893;59.754;10.110;2023-05-19T13:13:08;11.10;;;2.50;;
65289;SDS011;51893;59.754;10.110;2023-05-19T13:15:43;7.30;;;3.00;;
65289;SDS011;51893;59.754;10.110;2023-05-19T13:18:13;14.20;;;3.00;;
65289;SDS011;51893;59.754;10.110;2023-05-19T13:20:43;7.50;;;2.70;;
65289;SDS011;51893;59.754;10.110;2023-05-19T13:23:12;8.60;;;3.50;;
65289;SDS011;51893;59.754;10.110;2023-05-19T13:25:41;7.90;;;3.10;;
65289;SDS011;51893;59.754;10.110;2023-05-19T13:28:10;8.70;;;2.70;;
65289;SDS011;51893;59.754;10.110;2023-05-19T13:30:39;10.20;;;3.30;;
65289;SDS011;51893;59.754;10.110;2023-05-19T13:33:08;8.20;;;2.60;;
65289;SDS011;51893;59.754;10.110;2023-05-19T13:35:36;10.80;;;2.80;;
65289;SDS011;51893;59.754;10.110;2023-05-19T13:38:06;11.30;;;3.20;;
65289;SDS011;51893;59.754;10.110;2023-05-19T13:40:39;11.90;;;3.00;;
65289;SDS011;51893;59.754;10.110;2023-05-19T13:43:07;5.60;;;2.70;;
65289;SDS011;51893;59.754;10.110;2023-05-19T13:45:36;8.60;;;3.00;;
65289;SDS011;51893;59.754;10.110;2023-05-19T13:48:05;8.40;;;2.90;;
65289;SDS011;51893;59.754;10.110;2023-05-19T13:50:34;15.60;;;3.30;;
65289;SDS011;51893;59.754;10.110;2023-05-19T13:53:03;8.50;;;3.10;;
65289;SDS011;51893;59.754;10.110;2023-05-19T13:55:31;6.60;;;3.20;;
65289;SDS011;51893;59.754;10.110;2023-05-19T13:57:59;8.40;;;3.00;;
65289;SDS011;51893;59.754;10.110;2023-05-19T14:00:28;8.20;;;2.90;;
65289;SDS011;51893;59.754;10.110;2023-05-19T14:02:57;5.40;;;2.20;;
65289;SDS011;51893;59.754;10.110;2023-05-19T14:05:27;6.20;;;2.30;;
65289;SDS011;51893;59.754;10.110;2023-05-19T14:07:55;5.20;;;2.50;;
65289;SDS011;51893;59.754;10.110;2023-05-19T14:10:24;12.50;;;3.20;;
65289;SDS011;51893;59.754;10.110;2023-05-19T14:12:53;12.60;;;3.10;;
65289;SDS011;51893;59.754;10.110;2023-05-19T14:15:41;6.30;;;3.00;;
65289;SDS011;51893;59.754;10.110;2023-05-19T14:18:09;7.00;;;2.70;;
65289;SDS011;51893;59.754;10.110;2023-05-19T14:20:37;9.20;;;2.50;;
65289;SDS011;51893;59.754;10.110;2023-05-19T14:23:05;8.90;;;2.70;;
65289;SDS011;51893;59.754;10.110;2023-05-19T14:25:33;6.30;;;2.20;;
65289;SDS011;51893;59.754;10.110;2023-05-19T14:28:01;7.90;;;2.40;;
65289;SDS011;51893;59.754;10.110;2023-05-19T14:30:29;5.40;;;2.40;;
65289;SDS011;51893;59.754;10.110;2023-05-19T14:33:00;8.50;;;3.20;;
65289;SDS011;51893;59.754;10.110;2023-05-19T14:35:28;7.20;;;2.30;;
65289;SDS011;51893;59.754;10.110;2023-05-19T14:37:56;6.90;;;3.30;;
65289;SDS011;51893;59.754;10.110;2023-05-19T14:40:24;10.80;;;3.20;;
65289;SDS011;51893;59.754;10.110;2023-05-19T14:42:52;18.10;;;3.30;;
65289;SDS011;51893;59.754;10.110;2023-05-19T14:45:20;9.60;;;2.80;;
65289;SDS011;51893;59.754;10.110;2023-05-19T14:47:48;7.10;;;2.40;;
65289;SDS011;51893;59.754;10.110;2023-05-19T14:50:16;45.10;;;4.20;;
65289;SDS011;51893;59.754;10.110;2023-05-19T14:52:44;13.20;;;3.00;;
65289;SDS011;51893;59.754;10.110;2023-05-19T14:55:12;17.10;;;2.70;;
65289;SDS011;51893;59.754;10.110;2023-05-19T14:57:40;5.70;;;2.50;;
65289;SDS011;51893;59.754;10.110;2023-05-19T15:00:08;12.20;;;2.80;;
65289;SDS011;51893;59.754;10.110;2023-05-19T15:02:37;57.00;;;4.60;;
65289;SDS011;51893;59.754;10.110;2023-05-19T15:05:06;22.60;;;3.10;;
65289;SDS011;51893;59.754;10.110;2023-05-19T15:07:34;16.80;;;3.50;;
65289;SDS011;51893;59.754;10.110;2023-05-19T15:10:03;19.50;;;3.30;;
65289;SDS011;51893;59.754;10.110;2023-05-19T15:12:31;7.00;;;2.70;;
65289;SDS011;51893;59.754;10.110;2023-05-19T15:14:59;13.60;;;3.30;;